sensor_id;sensor_type;location;lat;lon;timestamp;P1;durP1;ratioP1;P2;durP2;ratioP2
64295;SDS011;51082;38.236;15.432;2023-04-01T00:00:31;1.33;;;0.88;;
64295;SDS011;51082;38.236;15.432;2023-04-01T00:01:34;0.98;;;0.73;;
64295;SDS011;51082;38.236;15.432;2023-04-01T00:02:37;1.65;;;0.70;;
64295;SDS011;51082;38.236;15.432;2023-04-01T00:03:39;1.00;;;0.90;;
64295;SDS011;51082;38.236;15.432;2023-04-01T00:04:41;0.55;;;0.47;;
64295;SDS011;51082;38.236;15.432;2023-04-01T00:05:45;5.13;;;1.23;;
64295;SDS011;51082;38.236;15.432;2023-04-01T00:06:46;3.13;;;0.35;;
64295;SDS011;51082;38.236;15.432;2023-04-01T00:07:49;0.45;;;0.43;;
64295;SDS011;51082;38.236;15.432;2023-04-01T00:08:51;0.30;;;0.30;;
64295;SDS011;51082;38.236;15.432;2023-04-01T00:09:54;0.40;;;0.35;;
64295;SDS011;51082;38.236;15.432;2023-04-01T00:10:56;0.57;;;0.52;;
64295;SDS011;51082;38.236;15.432;2023-04-01T00:11:59;0.32;;;0.32;;
64295;SDS011;51082;38.236;15.432;2023-04-01T00:13:01;0.90;;;0.73;;
64295;SDS011;51082;38.236;15.432;2023-04-01T00:14:04;0.60;;;0.50;;
64295;SDS011;51082;38.236;15.432;2023-04-01T00:15:06;0.30;;;0.30;;
64295;SDS011;51082;38.236;15.432;2023-04-01T00:16:10;0.30;;;0.30;;
64295;SDS011;51082;38.236;15.432;2023-04-01T00:17:13;2.80;;;0.70;;
64295;SDS011;51082;38.236;15.432;2023-04-01T00:18:17;1.65;;;0.70;;
64295;SDS011;51082;38.236;15.432;2023-04-01T00:19:19;1.30;;;0.52;;
64295;SDS011;51082;38.236;15.432;2023-04-01T00:20:21;1.27;;;0.77;;
64295;SDS011;51082;38.236;15.432;2023-04-01T00:21:23;0.40;;;0.40;;
64295;SDS011;51082;38.236;15.432;2023-04-01T00:22:26;3.30;;;0.75;;
64295;SDS011;51082;38.236;15.432;2023-04-01T00:23:28;1.13;;;0.55;;
64295;SDS011;51082;38.236;15.432;2023-04-01T00:24:30;0.70;;;0.70;;
64295;SDS011;51082;38.236;15.432;2023-04-01T00:25:32;0.30;;;0.30;;
64295;SDS011;51082;38.236;15.432;2023-04-01T00:26:35;0.57;;;0.57;;
64295;SDS011;51082;38.236;15.432;2023-04-01T00:27:36;0.68;;;0.68;;
64295;SDS011;51082;38.236;15.432;2023-04-01T00:28:39;0.32;;;0.32;;
64295;SDS011;51082;38.236;15.432;2023-04-01T00:29:41;1.00;;;0.90;;
64295;SDS011;51082;38.236;15.432;2023-04-01T00:30:44;1.33;;;0.80;;
64295;SDS011;51082;38.236;15.432;2023-04-01T00:31:46;0.60;;;0.60;;
64295;SDS011;51082;38.236;15.432;2023-04-01T00:32:51;0.28;;;0.28;;
64295;SDS011;51082;38.236;15.432;2023-04-01T00:33:54;0.35;;;0.28;;
64295;SDS011;51082;38.236;15.432;2023-04-01T00:34:57;7.32;;;0.85;;
64295;SDS011;51082;38.236;15.432;2023-04-01T00:36:05;3.38;;;0.70;;
64295;SDS011;51082;38.236;15.432;2023-04-01T00:37:09;1.17;;;0.70;;
64295;SDS011;51082;38.236;15.432;2023-04-01T00:38:10;0.52;;;0.50;;
64295;SDS011;51082;38.236;15.432;2023-04-01T00:39:13;1.02;;;1.02;;
64295;SDS011;51082;38.236;15.432;2023-04-01T00:40:21;2.63;;;0.50;;
64295;SDS011;51082;38.236;15.432;2023-04-01T00:41:27;0.98;;;0.40;;
64295;SDS011;51082;38.236;15.432;2023-04-01T00:42:29;0.88;;;0.57;;
64295;SDS011;51082;38.236;15.432;2023-04-01T00:43:32;0.63;;;0.52;;
64295;SDS011;51082;38.236;15.432;2023-04-01T00:44:36;1.23;;;0.70;;
64295;SDS011;51082;38.236;15.432;2023-04-01T00:45:40;1.58;;;0.50;;
64295;SDS011;51082;38.236;15.432;2023-04-01T00:46:42;0.50;;;0.30;;
64295;SDS011;51082;38.236;15.432;2023-04-01T00:47:45;1.92;;;0.95;;
64295;SDS011;51082;38.236;15.432;2023-04-01T00:48:47;6.57;;;0.73;;
64295;SDS011;51082;38.236;15.432;2023-04-01T00:49:54;2.17;;;0.40;;
64295;SDS011;51082;38.236;15.432;2023-04-01T00:50:57;3.92;;;0.75;;
64295;SDS011;51082;38.236;15.432;2023-04-01T00:52:03;1.45;;;0.38;;
64295;SDS011;51082;38.236;15.432;2023-04-01T00:53:06;1.13;;;0.82;;
64295;SDS011;51082;38.236;15.432;2023-04-01T00:54:10;4.75;;;0.88;;
64295;SDS011;51082;38.236;15.432;2023-04-01T00:55:13;0.60;;;0.57;;
64295;SDS011;51082;38.236;15.432;2023-04-01T00:56:19;0.80;;;0.77;;
64295;SDS011;51082;38.236;15.432;2023-04-01T00:57:27;1.20;;;0.60;;
64295;SDS011;51082;38.236;15.432;2023-04-01T00:58:32;0.50;;;0.50;;
64295;SDS011;51082;38.236;15.432;2023-04-01T00:59:40;0.70;;;0.50;;
64295;SDS011;51082;38.236;15.432;2023-04-01T01:00:46;1.75;;;0.52;;
64295;SDS011;51082;38.236;15.432;2023-04-01T01:01:51;0.30;;;0.30;;
64295;SDS011;51082;38.236;15.432;2023-04-01T01:02:53;0.52;;;0.52;;
64295;SDS011;51082;38.236;15.432;2023-04-01T01:03:55;0.75;;;0.63;;
64295;SDS011;51082;38.236;15.432;2023-04-01T01:04:59;0.68;;;0.63;;
64295;SDS011;51082;38.236;15.432;2023-04-01T01:06:08;1.25;;;0.55;;
64295;SDS011;51082;38.236;15.432;2023-04-01T01:07:14;0.40;;;0.40;;
64295;SDS011;51082;38.236;15.432;2023-04-01T01:08:25;1.63;;;0.98;;
64295;SDS011;51082;38.236;15.432;2023-04-01T01:09:40;0.43;;;0.43;;
64295;SDS011;51082;38.236;15.432;2023-04-01T01:10:49;0.73;;;0.55;;
64295;SDS011;51082;38.236;15.432;2023-04-01T01:11:52;2.17;;;0.50;;
64295;SDS011;51082;38.236;15.432;2023-04-01T01:13:03;1.92;;;0.80;;
64295;SDS011;51082;38.236;15.432;2023-04-01T01:14:14;1.15;;;0.70;;
64295;SDS011;51082;38.236;15.432;2023-04-01T01:15:28;0.52;;;0.43;;
64295;SDS011;51082;38.236;15.432;2023-04-01T01:16:36;2.35;;;1.30;;
64295;SDS011;51082;38.236;15.432;2023-04-01T01:17:47;0.80;;;0.80;;
64295;SDS011;51082;38.236;15.432;2023-04-01T01:18:57;0.88;;;0.60;;
64295;SDS011;51082;38.236;15.432;2023-04-01T01:22:04;2.70;;;1.15;;
64295;SDS011;51082;38.236;15.432;2023-04-01T01:23:23;2.17;;;0.82;;
64295;SDS011;51082;38.236;15.432;2023-04-01T01:25:12;1.43;;;0.40;;
64295;SDS011;51082;38.236;15.432;2023-04-01T01:26:31;3.83;;;1.08;;
64295;SDS011;51082;38.236;15.432;2023-04-01T01:27:56;0.95;;;0.93;;
64295;SDS011;51082;38.236;15.432;2023-04-01T01:29:07;0.65;;;0.63;;
64295;SDS011;51082;38.236;15.432;2023-04-01T01:30:32;0.30;;;0.30;;
64295;SDS011;51082;38.236;15.432;2023-04-01T01:31:43;1.45;;;0.65;;
64295;SDS011;51082;38.236;15.432;2023-04-01T01:32:55;1.45;;;0.73;;
64295;SDS011;51082;38.236;15.432;2023-04-01T01:34:21;1.45;;;0.77;;
64295;SDS011;51082;38.236;15.432;2023-04-01T01:35:32;0.47;;;0.40;;
64295;SDS011;51082;38.236;15.432;2023-04-01T01:36:38;0.53;;;0.53;;
64295;SDS011;51082;38.236;15.432;2023-04-01T01:37:45;5.15;;;0.43;;
64295;SDS011;51082;38.236;15.432;2023-04-01T01:38:52;0.95;;;0.80;;
64295;SDS011;51082;38.236;15.432;2023-04-01T01:39:55;1.50;;;0.70;;
64295;SDS011;51082;38.236;15.432;2023-04-01T01:41:00;0.60;;;0.60;;
64295;SDS011;51082;38.236;15.432;2023-04-01T01:42:04;1.75;;;0.85;;
64295;SDS011;51082;38.236;15.432;2023-04-01T01:43:10;1.67;;;0.85;;
64295;SDS011;51082;38.236;15.432;2023-04-01T01:44:18;1.10;;;0.65;;
64295;SDS011;51082;38.236;15.432;2023-04-01T01:45:22;0.95;;;0.88;;
64295;SDS011;51082;38.236;15.432;2023-04-01T01:46:28;2.78;;;0.88;;
64295;SDS011;51082;38.236;15.432;2023-04-01T01:47:31;3.92;;;1.08;;
64295;SDS011;51082;38.236;15.432;2023-04-01T01:48:36;3.70;;;1.13;;
64295;SDS011;51082;38.236;15.432;2023-04-01T01:49:39;0.45;;;0.45;;
64295;SDS011;51082;38.236;15.432;2023-04-01T01:50:46;0.45;;;0.45;;
64295;SDS011;51082;38.236;15.432;2023-04-01T01:51:49;0.73;;;0.50;;
64295;SDS011;51082;38.236;15.432;2023-04-01T01:53:00;0.45;;;0.45;;
64295;SDS011;51082;38.236;15.432;2023-04-01T01:54:04;1.20;;;0.85;;
64295;SDS011;51082;38.236;15.432;2023-04-01T01:55:22;3.90;;;1.15;;
64295;SDS011;51082;38.236;15.432;2023-04-01T01:56:27;0.47;;;0.47;;
64295;SDS011;51082;38.236;15.432;2023-04-01T01:57:33;3.33;;;0.90;;
64295;SDS011;51082;38.236;15.432;2023-04-01T01:58:37;1.42;;;0.68;;
64295;SDS011;51082;38.236;15.432;2023-04-01T01:59:43;2.63;;;0.70;;
64295;SDS011;51082;38.236;15.432;2023-04-01T02:00:48;2.78;;;1.25;;
64295;SDS011;51082;38.236;15.432;2023-04-01T02:01:55;8.45;;;1.33;;
64295;SDS011;51082;38.236;15.432;2023-04-01T02:02:57;0.40;;;0.40;;
64295;SDS011;51082;38.236;15.432;2023-04-01T02:04:01;2.45;;;1.10;;
64295;SDS011;51082;38.236;15.432;2023-04-01T02:05:04;0.70;;;0.70;;
64295;SDS011;51082;38.236;15.432;2023-04-01T02:06:10;1.40;;;0.85;;
64295;SDS011;51082;38.236;15.432;2023-04-01T02:07:14;4.05;;;0.63;;
64295;SDS011;51082;38.236;15.432;2023-04-01T02:08:21;1.77;;;0.85;;
64295;SDS011;51082;38.236;15.432;2023-04-01T02:09:26;1.17;;;0.43;;
64295;SDS011;51082;38.236;15.432;2023-04-01T02:10:31;2.47;;;0.65;;
64295;SDS011;51082;38.236;15.432;2023-04-01T02:11:37;3.85;;;0.47;;
64295;SDS011;51082;38.236;15.432;2023-04-01T02:12:44;2.38;;;1.02;;
64295;SDS011;51082;38.236;15.432;2023-04-01T02:13:50;4.13;;;1.00;;
64295;SDS011;51082;38.236;15.432;2023-04-01T02:14:57;6.00;;;1.08;;
64295;SDS011;51082;38.236;15.432;2023-04-01T02:16:02;6.05;;;0.90;;
64295;SDS011;51082;38.236;15.432;2023-04-01T02:17:10;0.50;;;0.50;;
64295;SDS011;51082;38.236;15.432;2023-04-01T02:18:15;2.28;;;1.17;;
64295;SDS011;51082;38.236;15.432;2023-04-01T02:19:20;0.35;;;0.30;;
64295;SDS011;51082;38.236;15.432;2023-04-01T02:20:25;1.23;;;0.50;;
64295;SDS011;51082;38.236;15.432;2023-04-01T02:21:32;1.17;;;0.70;;
64295;SDS011;51082;38.236;15.432;2023-04-01T02:22:35;1.25;;;0.55;;
64295;SDS011;51082;38.236;15.432;2023-04-01T02:23:42;0.63;;;0.63;;
64295;SDS011;51082;38.236;15.432;2023-04-01T02:24:44;1.80;;;1.02;;
64295;SDS011;51082;38.236;15.432;2023-04-01T02:25:47;0.55;;;0.35;;
64295;SDS011;51082;38.236;15.432;2023-04-01T02:26:49;2.40;;;0.88;;
64295;SDS011;51082;38.236;15.432;2023-04-01T02:27:53;1.55;;;0.22;;
64295;SDS011;51082;38.236;15.432;2023-04-01T02:28:57;0.88;;;0.38;;
64295;SDS011;51082;38.236;15.432;2023-04-01T02:30:03;3.30;;;0.57;;
64295;SDS011;51082;38.236;15.432;2023-04-01T02:31:05;7.90;;;1.17;;
64295;SDS011;51082;38.236;15.432;2023-04-01T02:32:10;4.07;;;1.27;;
64295;SDS011;51082;38.236;15.432;2023-04-01T02:33:14;7.35;;;1.25;;
64295;SDS011;51082;38.236;15.432;2023-04-01T02:34:18;2.85;;;1.48;;
64295;SDS011;51082;38.236;15.432;2023-04-01T02:35:20;2.17;;;0.60;;
64295;SDS011;51082;38.236;15.432;2023-04-01T02:36:24;5.68;;;0.70;;
64295;SDS011;51082;38.236;15.432;2023-04-01T02:37:27;0.88;;;0.35;;
64295;SDS011;51082;38.236;15.432;2023-04-01T02:38:30;3.08;;;1.13;;
64295;SDS011;51082;38.236;15.432;2023-04-01T02:39:32;0.80;;;0.55;;
64295;SDS011;51082;38.236;15.432;2023-04-01T02:40:44;2.92;;;1.02;;
64295;SDS011;51082;38.236;15.432;2023-04-01T02:41:48;2.88;;;0.47;;
64295;SDS011;51082;38.236;15.432;2023-04-01T02:42:51;1.48;;;0.82;;
64295;SDS011;51082;38.236;15.432;2023-04-01T02:43:52;5.47;;;0.73;;
64295;SDS011;51082;38.236;15.432;2023-04-01T02:44:55;1.65;;;0.55;;
64295;SDS011;51082;38.236;15.432;2023-04-01T02:45:57;8.63;;;1.00;;
64295;SDS011;51082;38.236;15.432;2023-04-01T02:47:00;3.72;;;2.05;;
64295;SDS011;51082;38.236;15.432;2023-04-01T02:48:01;1.38;;;0.90;;
64295;SDS011;51082;38.236;15.432;2023-04-01T02:49:05;2.38;;;0.22;;
64295;SDS011;51082;38.236;15.432;2023-04-01T02:50:07;0.98;;;0.85;;
64295;SDS011;51082;38.236;15.432;2023-04-01T02:51:10;0.40;;;0.40;;
64295;SDS011;51082;38.236;15.432;2023-04-01T02:52:12;1.92;;;1.20;;
64295;SDS011;51082;38.236;15.432;2023-04-01T02:53:16;1.02;;;0.63;;
64295;SDS011;51082;38.236;15.432;2023-04-01T02:54:18;1.10;;;1.08;;
64295;SDS011;51082;38.236;15.432;2023-04-01T02:55:21;4.47;;;0.93;;
64295;SDS011;51082;38.236;15.432;2023-04-01T02:56:22;0.88;;;0.77;;
64295;SDS011;51082;38.236;15.432;2023-04-01T02:57:26;5.47;;;0.68;;
64295;SDS011;51082;38.236;15.432;2023-04-01T02:58:28;3.35;;;1.00;;
64295;SDS011;51082;38.236;15.432;2023-04-01T02:59:31;1.08;;;0.60;;
64295;SDS011;51082;38.236;15.432;2023-04-01T03:00:33;4.70;;;0.73;;
64295;SDS011;51082;38.236;15.432;2023-04-01T03:01:35;1.40;;;0.75;;
64295;SDS011;51082;38.236;15.432;2023-04-01T03:02:37;3.75;;;1.38;;
64295;SDS011;51082;38.236;15.432;2023-04-01T03:03:40;1.55;;;0.88;;
64295;SDS011;51082;38.236;15.432;2023-04-01T03:04:42;2.20;;;1.10;;
64295;SDS011;51082;38.236;15.432;2023-04-01T03:05:45;6.07;;;0.85;;
64295;SDS011;51082;38.236;15.432;2023-04-01T03:06:46;1.20;;;1.00;;
64295;SDS011;51082;38.236;15.432;2023-04-01T03:07:49;3.72;;;1.05;;
64295;SDS011;51082;38.236;15.432;2023-04-01T03:08:52;1.63;;;0.88;;
64295;SDS011;51082;38.236;15.432;2023-04-01T03:09:55;2.33;;;1.02;;
64295;SDS011;51082;38.236;15.432;2023-04-01T03:10:57;0.82;;;0.70;;
64295;SDS011;51082;38.236;15.432;2023-04-01T03:11:59;4.22;;;0.85;;
64295;SDS011;51082;38.236;15.432;2023-04-01T03:13:01;0.30;;;0.30;;
64295;SDS011;51082;38.236;15.432;2023-04-01T03:14:04;1.95;;;1.10;;
64295;SDS011;51082;38.236;15.432;2023-04-01T03:15:06;5.65;;;1.98;;
64295;SDS011;51082;38.236;15.432;2023-04-01T03:16:09;2.95;;;0.75;;
64295;SDS011;51082;38.236;15.432;2023-04-01T03:17:11;6.88;;;1.50;;
64295;SDS011;51082;38.236;15.432;2023-04-01T03:18:13;2.45;;;0.80;;
64295;SDS011;51082;38.236;15.432;2023-04-01T03:19:15;0.68;;;0.57;;
64295;SDS011;51082;38.236;15.432;2023-04-01T03:20:17;0.77;;;0.55;;
64295;SDS011;51082;38.236;15.432;2023-04-01T03:21:20;3.03;;;1.40;;
64295;SDS011;51082;38.236;15.432;2023-04-01T03:22:25;0.95;;;0.77;;
64295;SDS011;51082;38.236;15.432;2023-04-01T03:23:26;2.47;;;0.40;;
64295;SDS011;51082;38.236;15.432;2023-04-01T03:24:30;1.08;;;0.70;;
64295;SDS011;51082;38.236;15.432;2023-04-01T03:25:32;4.40;;;0.85;;
64295;SDS011;51082;38.236;15.432;2023-04-01T03:26:35;3.50;;;0.65;;
64295;SDS011;51082;38.236;15.432;2023-04-01T03:27:36;2.83;;;1.30;;
64295;SDS011;51082;38.236;15.432;2023-04-01T03:28:39;3.42;;;1.90;;
64295;SDS011;51082;38.236;15.432;2023-04-01T03:29:41;2.50;;;1.02;;
64295;SDS011;51082;38.236;15.432;2023-04-01T03:30:43;7.25;;;1.42;;
64295;SDS011;51082;38.236;15.432;2023-04-01T03:31:45;11.20;;;1.20;;
64295;SDS011;51082;38.236;15.432;2023-04-01T03:32:48;5.30;;;1.02;;
64295;SDS011;51082;38.236;15.432;2023-04-01T03:33:49;14.63;;;1.15;;
64295;SDS011;51082;38.236;15.432;2023-04-01T03:34:52;4.00;;;0.60;;
64295;SDS011;51082;38.236;15.432;2023-04-01T03:35:55;2.58;;;0.85;;
64295;SDS011;51082;38.236;15.432;2023-04-01T03:36:56;7.80;;;1.20;;
64295;SDS011;51082;38.236;15.432;2023-04-01T03:38:00;3.30;;;1.15;;
64295;SDS011;51082;38.236;15.432;2023-04-01T03:39:01;0.65;;;0.43;;
64295;SDS011;51082;38.236;15.432;2023-04-01T03:40:07;7.55;;;0.80;;
64295;SDS011;51082;38.236;15.432;2023-04-01T03:41:13;2.47;;;1.20;;
64295;SDS011;51082;38.236;15.432;2023-04-01T03:42:16;5.90;;;0.95;;
64295;SDS011;51082;38.236;15.432;2023-04-01T03:43:17;7.47;;;1.77;;
64295;SDS011;51082;38.236;15.432;2023-04-01T03:44:21;7.70;;;1.25;;
64295;SDS011;51082;38.236;15.432;2023-04-01T03:45:22;3.58;;;1.05;;
64295;SDS011;51082;38.236;15.432;2023-04-01T03:46:26;8.98;;;1.33;;
64295;SDS011;51082;38.236;15.432;2023-04-01T03:47:28;2.65;;;0.77;;
64295;SDS011;51082;38.236;15.432;2023-04-01T03:48:31;2.55;;;0.70;;
64295;SDS011;51082;38.236;15.432;2023-04-01T03:49:32;2.28;;;0.98;;
64295;SDS011;51082;38.236;15.432;2023-04-01T03:50:35;2.33;;;1.05;;
64295;SDS011;51082;38.236;15.432;2023-04-01T03:51:37;2.08;;;1.25;;
64295;SDS011;51082;38.236;15.432;2023-04-01T03:52:40;8.02;;;0.93;;
64295;SDS011;51082;38.236;15.432;2023-04-01T03:53:42;3.33;;;1.30;;
64295;SDS011;51082;38.236;15.432;2023-04-01T03:54:44;3.95;;;1.50;;
64295;SDS011;51082;38.236;15.432;2023-04-01T03:55:47;4.05;;;1.25;;
64295;SDS011;51082;38.236;15.432;2023-04-01T03:56:51;1.65;;;0.52;;
64295;SDS011;51082;38.236;15.432;2023-04-01T03:57:53;5.90;;;1.88;;
64295;SDS011;51082;38.236;15.432;2023-04-01T03:58:56;1.35;;;0.90;;
64295;SDS011;51082;38.236;15.432;2023-04-01T03:59:57;3.97;;;0.90;;
64295;SDS011;51082;38.236;15.432;2023-04-01T04:01:00;3.45;;;1.13;;
64295;SDS011;51082;38.236;15.432;2023-04-01T04:02:02;7.05;;;1.48;;
64295;SDS011;51082;38.236;15.432;2023-04-01T04:03:05;3.58;;;0.88;;
64295;SDS011;51082;38.236;15.432;2023-04-01T04:04:07;4.90;;;0.95;;
64295;SDS011;51082;38.236;15.432;2023-04-01T04:05:12;2.40;;;1.75;;
64295;SDS011;51082;38.236;15.432;2023-04-01T04:06:14;5.10;;;1.15;;
64295;SDS011;51082;38.236;15.432;2023-04-01T04:07:18;7.40;;;1.23;;
64295;SDS011;51082;38.236;15.432;2023-04-01T04:08:20;4.00;;;0.68;;
64295;SDS011;51082;38.236;15.432;2023-04-01T04:09:23;16.30;;;1.77;;
64295;SDS011;51082;38.236;15.432;2023-04-01T04:10:24;2.47;;;1.15;;
64295;SDS011;51082;38.236;15.432;2023-04-01T04:11:30;5.88;;;0.85;;
64295;SDS011;51082;38.236;15.432;2023-04-01T04:12:32;4.35;;;1.30;;
64295;SDS011;51082;38.236;15.432;2023-04-01T04:13:35;0.77;;;0.77;;
64295;SDS011;51082;38.236;15.432;2023-04-01T04:14:36;8.75;;;0.82;;
64295;SDS011;51082;38.236;15.432;2023-04-01T04:15:39;2.42;;;1.48;;
64295;SDS011;51082;38.236;15.432;2023-04-01T04:16:41;1.73;;;0.75;;
64295;SDS011;51082;38.236;15.432;2023-04-01T04:17:44;1.77;;;1.27;;
64295;SDS011;51082;38.236;15.432;2023-04-01T04:18:45;9.73;;;1.92;;
64295;SDS011;51082;38.236;15.432;2023-04-01T04:19:48;3.58;;;1.27;;
64295;SDS011;51082;38.236;15.432;2023-04-01T04:20:50;9.07;;;1.50;;
64295;SDS011;51082;38.236;15.432;2023-04-01T04:21:53;3.63;;;1.30;;
64295;SDS011;51082;38.236;15.432;2023-04-01T04:22:55;1.17;;;0.70;;
64295;SDS011;51082;38.236;15.432;2023-04-01T04:23:58;13.45;;;1.27;;
64295;SDS011;51082;38.236;15.432;2023-04-01T04:25:00;4.10;;;1.30;;
64295;SDS011;51082;38.236;15.432;2023-04-01T04:26:03;2.55;;;1.10;;
64295;SDS011;51082;38.236;15.432;2023-04-01T04:27:09;9.40;;;0.80;;
64295;SDS011;51082;38.236;15.432;2023-04-01T04:28:11;2.65;;;1.67;;
64295;SDS011;51082;38.236;15.432;2023-04-01T04:29:13;2.75;;;0.90;;
64295;SDS011;51082;38.236;15.432;2023-04-01T04:30:15;5.13;;;1.83;;
64295;SDS011;51082;38.236;15.432;2023-04-01T04:31:18;0.95;;;0.95;;
64295;SDS011;51082;38.236;15.432;2023-04-01T04:32:21;13.35;;;1.20;;
64295;SDS011;51082;38.236;15.432;2023-04-01T04:33:24;3.78;;;1.65;;
64295;SDS011;51082;38.236;15.432;2023-04-01T04:34:26;1.45;;;0.63;;
64295;SDS011;51082;38.236;15.432;2023-04-01T04:35:29;2.22;;;1.13;;
64295;SDS011;51082;38.236;15.432;2023-04-01T04:36:30;2.50;;;1.05;;
64295;SDS011;51082;38.236;15.432;2023-04-01T04:37:33;2.70;;;1.23;;
64295;SDS011;51082;38.236;15.432;2023-04-01T04:38:35;2.67;;;0.70;;
64295;SDS011;51082;38.236;15.432;2023-04-01T04:39:37;5.32;;;2.50;;
64295;SDS011;51082;38.236;15.432;2023-04-01T04:40:39;3.58;;;1.58;;
64295;SDS011;51082;38.236;15.432;2023-04-01T04:41:43;2.17;;;0.82;;
64295;SDS011;51082;38.236;15.432;2023-04-01T04:42:46;1.55;;;0.80;;
64295;SDS011;51082;38.236;15.432;2023-04-01T04:43:50;9.25;;;1.70;;
64295;SDS011;51082;38.236;15.432;2023-04-01T04:44:52;5.88;;;1.58;;
64295;SDS011;51082;38.236;15.432;2023-04-01T04:45:55;5.28;;;0.90;;
64295;SDS011;51082;38.236;15.432;2023-04-01T04:46:57;4.20;;;1.15;;
64295;SDS011;51082;38.236;15.432;2023-04-01T04:48:00;4.80;;;1.10;;
64295;SDS011;51082;38.236;15.432;2023-04-01T04:49:01;0.90;;;0.85;;
64295;SDS011;51082;38.236;15.432;2023-04-01T04:50:04;2.00;;;1.23;;
64295;SDS011;51082;38.236;15.432;2023-04-01T04:51:07;7.50;;;0.85;;
64295;SDS011;51082;38.236;15.432;2023-04-01T04:52:11;4.72;;;1.00;;
64295;SDS011;51082;38.236;15.432;2023-04-01T04:53:13;5.65;;;1.83;;
64295;SDS011;51082;38.236;15.432;2023-04-01T04:54:17;4.57;;;1.17;;
64295;SDS011;51082;38.236;15.432;2023-04-01T04:55:18;2.80;;;0.70;;
64295;SDS011;51082;38.236;15.432;2023-04-01T04:56:22;1.98;;;0.85;;
64295;SDS011;51082;38.236;15.432;2023-04-01T04:57:25;2.53;;;0.65;;
64295;SDS011;51082;38.236;15.432;2023-04-01T04:58:30;1.83;;;0.82;;
64295;SDS011;51082;38.236;15.432;2023-04-01T04:59:31;1.55;;;1.25;;
64295;SDS011;51082;38.236;15.432;2023-04-01T05:00:34;5.10;;;1.58;;
64295;SDS011;51082;38.236;15.432;2023-04-01T05:01:36;2.28;;;1.35;;
64295;SDS011;51082;38.236;15.432;2023-04-01T05:02:39;13.98;;;0.98;;
64295;SDS011;51082;38.236;15.432;2023-04-01T05:03:41;6.53;;;1.55;;
64295;SDS011;51082;38.236;15.432;2023-04-01T05:04:44;5.45;;;1.40;;
64295;SDS011;51082;38.236;15.432;2023-04-01T05:05:49;5.03;;;1.30;;
64295;SDS011;51082;38.236;15.432;2023-04-01T05:06:53;1.90;;;0.75;;
64295;SDS011;51082;38.236;15.432;2023-04-01T05:07:56;4.60;;;1.38;;
64295;SDS011;51082;38.236;15.432;2023-04-01T05:08:57;3.92;;;1.13;;
64295;SDS011;51082;38.236;15.432;2023-04-01T05:10:00;3.50;;;1.15;;
64295;SDS011;51082;38.236;15.432;2023-04-01T05:11:02;4.15;;;0.88;;
64295;SDS011;51082;38.236;15.432;2023-04-01T05:12:05;6.63;;;2.22;;
64295;SDS011;51082;38.236;15.432;2023-04-01T05:13:07;3.53;;;0.88;;
64295;SDS011;51082;38.236;15.432;2023-04-01T05:14:13;5.20;;;1.77;;
64295;SDS011;51082;38.236;15.432;2023-04-01T05:15:15;3.58;;;0.80;;
64295;SDS011;51082;38.236;15.432;2023-04-01T05:16:18;4.18;;;1.38;;
64295;SDS011;51082;38.236;15.432;2023-04-01T05:17:21;2.50;;;0.52;;
64295;SDS011;51082;38.236;15.432;2023-04-01T05:18:24;2.60;;;0.98;;
64295;SDS011;51082;38.236;15.432;2023-04-01T05:19:25;5.95;;;0.85;;
64295;SDS011;51082;38.236;15.432;2023-04-01T05:20:28;3.60;;;1.33;;
64295;SDS011;51082;38.236;15.432;2023-04-01T05:21:30;5.90;;;1.65;;
64295;SDS011;51082;38.236;15.432;2023-04-01T05:22:33;8.63;;;1.20;;
64295;SDS011;51082;38.236;15.432;2023-04-01T05:23:35;10.32;;;1.60;;
64295;SDS011;51082;38.236;15.432;2023-04-01T05:24:38;6.78;;;1.08;;
64295;SDS011;51082;38.236;15.432;2023-04-01T05:25:39;6.97;;;2.13;;
64295;SDS011;51082;38.236;15.432;2023-04-01T05:26:42;2.25;;;1.52;;
64295;SDS011;51082;38.236;15.432;2023-04-01T05:27:44;7.72;;;0.90;;
64295;SDS011;51082;38.236;15.432;2023-04-01T05:28:46;6.80;;;1.65;;
64295;SDS011;51082;38.236;15.432;2023-04-01T05:29:49;4.80;;;1.67;;
64295;SDS011;51082;38.236;15.432;2023-04-01T05:30:52;1.13;;;0.85;;
64295;SDS011;51082;38.236;15.432;2023-04-01T05:31:53;6.80;;;1.08;;
64295;SDS011;51082;38.236;15.432;2023-04-01T05:32:56;4.07;;;1.35;;
64295;SDS011;51082;38.236;15.432;2023-04-01T05:33:58;3.65;;;1.20;;
64295;SDS011;51082;38.236;15.432;2023-04-01T05:35:00;5.95;;;1.55;;
64295;SDS011;51082;38.236;15.432;2023-04-01T05:36:06;1.60;;;1.42;;
64295;SDS011;51082;38.236;15.432;2023-04-01T05:37:09;11.07;;;1.15;;
64295;SDS011;51082;38.236;15.432;2023-04-01T05:38:11;2.33;;;1.25;;
64295;SDS011;51082;38.236;15.432;2023-04-01T05:39:14;4.00;;;1.50;;
64295;SDS011;51082;38.236;15.432;2023-04-01T05:40:16;1.20;;;0.98;;
64295;SDS011;51082;38.236;15.432;2023-04-01T05:41:19;1.95;;;1.35;;
64295;SDS011;51082;38.236;15.432;2023-04-01T05:42:21;1.98;;;1.08;;
64295;SDS011;51082;38.236;15.432;2023-04-01T05:43:23;1.33;;;0.88;;
64295;SDS011;51082;38.236;15.432;2023-04-01T05:44:25;1.92;;;1.17;;
64295;SDS011;51082;38.236;15.432;2023-04-01T05:45:29;0.57;;;0.57;;
64295;SDS011;51082;38.236;15.432;2023-04-01T05:46:31;1.45;;;0.75;;
64295;SDS011;51082;38.236;15.432;2023-04-01T05:47:34;1.65;;;1.08;;
64295;SDS011;51082;38.236;15.432;2023-04-01T05:48:35;2.00;;;0.82;;
64295;SDS011;51082;38.236;15.432;2023-04-01T05:49:38;2.85;;;1.45;;
64295;SDS011;51082;38.236;15.432;2023-04-01T05:50:40;0.88;;;0.80;;
64295;SDS011;51082;38.236;15.432;2023-04-01T05:51:43;1.90;;;0.93;;
64295;SDS011;51082;38.236;15.432;2023-04-01T05:52:45;2.72;;;1.42;;
64295;SDS011;51082;38.236;15.432;2023-04-01T05:53:48;3.42;;;0.90;;
64295;SDS011;51082;38.236;15.432;2023-04-01T05:54:49;6.18;;;1.75;;
64295;SDS011;51082;38.236;15.432;2023-04-01T05:55:52;7.65;;;1.13;;
64295;SDS011;51082;38.236;15.432;2023-04-01T05:56:54;2.42;;;1.23;;
64295;SDS011;51082;38.236;15.432;2023-04-01T05:57:57;2.75;;;1.05;;
64295;SDS011;51082;38.236;15.432;2023-04-01T05:58:58;9.15;;;1.35;;
64295;SDS011;51082;38.236;15.432;2023-04-01T06:00:01;1.85;;;1.02;;
64295;SDS011;51082;38.236;15.432;2023-04-01T06:01:06;3.15;;;1.77;;
64295;SDS011;51082;38.236;15.432;2023-04-01T06:02:09;4.13;;;1.08;;
64295;SDS011;51082;38.236;15.432;2023-04-01T06:03:11;1.60;;;1.25;;
64295;SDS011;51082;38.236;15.432;2023-04-01T06:04:14;1.10;;;0.95;;
64295;SDS011;51082;38.236;15.432;2023-04-01T06:05:18;3.47;;;1.27;;
64295;SDS011;51082;38.236;15.432;2023-04-01T06:06:23;5.15;;;1.88;;
64295;SDS011;51082;38.236;15.432;2023-04-01T06:07:27;2.97;;;0.98;;
64295;SDS011;51082;38.236;15.432;2023-04-01T06:08:30;5.35;;;1.60;;
64295;SDS011;51082;38.236;15.432;2023-04-01T06:09:33;2.58;;;1.25;;
64295;SDS011;51082;38.236;15.432;2023-04-01T06:10:36;8.52;;;2.25;;
64295;SDS011;51082;38.236;15.432;2023-04-01T06:11:57;7.15;;;1.40;;
64295;SDS011;51082;38.236;15.432;2023-04-01T06:13:17;2.60;;;1.48;;
64295;SDS011;51082;38.236;15.432;2023-04-01T06:14:32;4.10;;;1.70;;
64295;SDS011;51082;38.236;15.432;2023-04-01T06:15:47;25.98;;;11.98;;
64295;SDS011;51082;38.236;15.432;2023-04-01T06:17:04;26.70;;;10.70;;
64295;SDS011;51082;38.236;15.432;2023-04-01T06:18:19;15.13;;;5.85;;
64295;SDS011;51082;38.236;15.432;2023-04-01T06:19:47;7.28;;;4.47;;
64295;SDS011;51082;38.236;15.432;2023-04-01T06:20:57;7.68;;;4.22;;
64295;SDS011;51082;38.236;15.432;2023-04-01T06:22:12;11.57;;;6.63;;
64295;SDS011;51082;38.236;15.432;2023-04-01T06:23:30;7.95;;;4.90;;